sensor_id;sensor_type;location;lat;lon;timestamp;P1;durP1;ratioP1;P2;durP2;ratioP2
44143;SDS011;43510;51.920;4.492;2023-02-08T00:00:41;19.67;;;9.07;;
44143;SDS011;43510;51.920;4.492;2023-02-08T00:03:07;22.75;;;9.52;;
44143;SDS011;43510;51.920;4.492;2023-02-08T00:05:32;19.23;;;9.53;;
44143;SDS011;43510;51.920;4.492;2023-02-08T00:07:57;21.23;;;8.97;;
44143;SDS011;43510;51.920;4.492;2023-02-08T00:12:52;22.00;;;9.23;;
44143;SDS011;43510;51.920;4.492;2023-02-08T00:15:18;20.77;;;10.03;;
44143;SDS011;43510;51.920;4.492;2023-02-08T00:17:43;19.87;;;9.17;;
44143;SDS011;43510;51.920;4.492;2023-02-08T00:20:09;17.40;;;8.87;;
44143;SDS011;43510;51.920;4.492;2023-02-08T00:22:35;20.60;;;9.57;;
44143;SDS011;43510;51.920;4.492;2023-02-08T00:25:11;19.52;;;9.02;;
44143;SDS011;43510;51.920;4.492;2023-02-08T00:27:36;19.87;;;7.90;;
44143;SDS011;43510;51.920;4.492;2023-02-08T00:30:03;18.00;;;9.30;;
44143;SDS011;43510;51.920;4.492;2023-02-08T00:32:29;16.23;;;8.98;;
44143;SDS011;43510;51.920;4.492;2023-02-08T00:34:54;26.87;;;9.57;;
44143;SDS011;43510;51.920;4.492;2023-02-08T00:37:20;17.15;;;8.45;;
44143;SDS011;43510;51.920;4.492;2023-02-08T00:39:52;19.40;;;9.98;;
44143;SDS011;43510;51.920;4.492;2023-02-08T00:42:18;21.25;;;9.20;;
44143;SDS011;43510;51.920;4.492;2023-02-08T00:44:43;20.37;;;9.00;;
44143;SDS011;43510;51.920;4.492;2023-02-08T00:47:09;21.58;;;9.75;;
44143;SDS011;43510;51.920;4.492;2023-02-08T00:49:34;15.93;;;8.30;;
44143;SDS011;43510;51.920;4.492;2023-02-08T00:52:01;16.90;;;8.50;;
44143;SDS011;43510;51.920;4.492;2023-02-08T00:54:26;20.40;;;10.03;;
44143;SDS011;43510;51.920;4.492;2023-02-08T00:56:52;20.75;;;9.70;;
44143;SDS011;43510;51.920;4.492;2023-02-08T00:59:17;17.17;;;9.13;;
44143;SDS011;43510;51.920;4.492;2023-02-08T01:01:42;21.85;;;9.50;;
44143;SDS011;43510;51.920;4.492;2023-02-08T01:04:08;18.80;;;8.73;;
44143;SDS011;43510;51.920;4.492;2023-02-08T01:06:33;22.53;;;9.93;;
44143;SDS011;43510;51.920;4.492;2023-02-08T01:08:59;20.87;;;9.47;;
44143;SDS011;43510;51.920;4.492;2023-02-08T01:11:24;20.63;;;9.87;;
44143;SDS011;43510;51.920;4.492;2023-02-08T01:13:51;22.87;;;8.77;;
44143;SDS011;43510;51.920;4.492;2023-02-08T01:16:19;21.53;;;9.77;;
44143;SDS011;43510;51.920;4.492;2023-02-08T01:18:48;24.27;;;9.57;;
44143;SDS011;43510;51.920;4.492;2023-02-08T01:21:16;20.10;;;9.53;;
44143;SDS011;43510;51.920;4.492;2023-02-08T01:23:46;16.47;;;8.90;;
44143;SDS011;43510;51.920;4.492;2023-02-08T01:26:13;18.07;;;9.20;;
44143;SDS011;43510;51.920;4.492;2023-02-08T01:28:39;18.37;;;8.60;;
44143;SDS011;43510;51.920;4.492;2023-02-08T01:31:06;19.57;;;8.20;;
44143;SDS011;43510;51.920;4.492;2023-02-08T01:33:32;19.80;;;9.00;;
44143;SDS011;43510;51.920;4.492;2023-02-08T01:35:58;17.97;;;8.83;;
44143;SDS011;43510;51.920;4.492;2023-02-08T01:40:54;16.70;;;8.70;;
44143;SDS011;43510;51.920;4.492;2023-02-08T01:43:21;20.17;;;9.13;;
44143;SDS011;43510;51.920;4.492;2023-02-08T01:45:49;18.67;;;9.03;;
44143;SDS011;43510;51.920;4.492;2023-02-08T01:48:37;20.27;;;8.73;;
44143;SDS011;43510;51.920;4.492;2023-02-08T01:51:09;19.80;;;8.70;;
44143;SDS011;43510;51.920;4.492;2023-02-08T01:53:42;17.63;;;8.93;;
44143;SDS011;43510;51.920;4.492;2023-02-08T01:56:12;19.37;;;9.00;;
44143;SDS011;43510;51.920;4.492;2023-02-08T01:58:45;18.80;;;8.77;;
44143;SDS011;43510;51.920;4.492;2023-02-08T02:01:17;17.43;;;8.50;;
44143;SDS011;43510;51.920;4.492;2023-02-08T02:03:43;18.70;;;9.43;;
44143;SDS011;43510;51.920;4.492;2023-02-08T02:06:10;15.30;;;7.67;;
44143;SDS011;43510;51.920;4.492;2023-02-08T02:08:42;18.20;;;7.70;;
44143;SDS011;43510;51.920;4.492;2023-02-08T02:11:15;20.30;;;8.40;;
44143;SDS011;43510;51.920;4.492;2023-02-08T02:13:41;18.47;;;8.17;;
44143;SDS011;43510;51.920;4.492;2023-02-08T02:16:07;18.53;;;8.10;;
44143;SDS011;43510;51.920;4.492;2023-02-08T02:18:33;21.35;;;9.60;;
44143;SDS011;43510;51.920;4.492;2023-02-08T02:32:39;14.80;;;7.77;;
44143;SDS011;43510;51.920;4.492;2023-02-08T02:35:15;18.70;;;8.93;;
44143;SDS011;43510;51.920;4.492;2023-02-08T02:37:58;19.57;;;9.00;;
44143;SDS011;43510;51.920;4.492;2023-02-08T02:43:16;17.77;;;8.10;;
44143;SDS011;43510;51.920;4.492;2023-02-08T02:51:35;18.30;;;8.33;;
44143;SDS011;43510;51.920;4.492;2023-02-08T02:54:12;19.13;;;9.07;;
44143;SDS011;43510;51.920;4.492;2023-02-08T02:56:43;21.03;;;9.13;;
44143;SDS011;43510;51.920;4.492;2023-02-08T02:59:11;16.63;;;8.20;;
44143;SDS011;43510;51.920;4.492;2023-02-08T03:01:39;17.53;;;8.53;;
44143;SDS011;43510;51.920;4.492;2023-02-08T03:04:14;18.57;;;9.00;;
44143;SDS011;43510;51.920;4.492;2023-02-08T03:12:26;16.30;;;8.70;;
44143;SDS011;43510;51.920;4.492;2023-02-08T03:18:34;15.87;;;8.43;;
44143;SDS011;43510;51.920;4.492;2023-02-08T03:20:37;17.67;;;7.40;;
44143;SDS011;43510;51.920;4.492;2023-02-08T03:23:38;16.73;;;8.23;;
44143;SDS011;43510;51.920;4.492;2023-02-08T03:31:46;14.27;;;7.83;;
44143;SDS011;43510;51.920;4.492;2023-02-08T03:37:23;17.83;;;7.97;;
44143;SDS011;43510;51.920;4.492;2023-02-08T03:39:58;17.70;;;8.03;;
44143;SDS011;43510;51.920;4.492;2023-02-08T03:42:30;15.77;;;7.60;;
44143;SDS011;43510;51.920;4.492;2023-02-08T03:45:02;16.13;;;8.20;;
44143;SDS011;43510;51.920;4.492;2023-02-08T03:47:35;16.63;;;8.53;;
44143;SDS011;43510;51.920;4.492;2023-02-08T03:50:07;20.47;;;9.00;;
44143;SDS011;43510;51.920;4.492;2023-02-08T03:52:36;18.77;;;8.50;;
44143;SDS011;43510;51.920;4.492;2023-02-08T03:55:15;18.13;;;8.33;;
44143;SDS011;43510;51.920;4.492;2023-02-08T03:57:57;15.97;;;8.30;;
44143;SDS011;43510;51.920;4.492;2023-02-08T04:00:29;14.20;;;7.67;;
44143;SDS011;43510;51.920;4.492;2023-02-08T04:03:06;18.80;;;9.57;;
44143;SDS011;43510;51.920;4.492;2023-02-08T04:05:39;16.57;;;8.13;;
44143;SDS011;43510;51.920;4.492;2023-02-08T04:08:05;17.40;;;8.77;;
44143;SDS011;43510;51.920;4.492;2023-02-08T04:10:31;18.40;;;8.10;;
44143;SDS011;43510;51.920;4.492;2023-02-08T04:12:56;19.23;;;8.00;;
44143;SDS011;43510;51.920;4.492;2023-02-08T04:15:22;21.47;;;8.63;;
44143;SDS011;43510;51.920;4.492;2023-02-08T04:17:47;17.53;;;8.50;;
44143;SDS011;43510;51.920;4.492;2023-02-08T04:20:12;17.70;;;9.50;;
44143;SDS011;43510;51.920;4.492;2023-02-08T04:22:38;17.67;;;8.57;;
44143;SDS011;43510;51.920;4.492;2023-02-08T04:25:04;14.90;;;8.07;;
44143;SDS011;43510;51.920;4.492;2023-02-08T04:27:29;22.00;;;9.67;;
44143;SDS011;43510;51.920;4.492;2023-02-08T04:29:55;20.23;;;8.80;;
44143;SDS011;43510;51.920;4.492;2023-02-08T04:32:21;20.73;;;9.13;;
44143;SDS011;43510;51.920;4.492;2023-02-08T04:34:46;16.73;;;9.07;;
44143;SDS011;43510;51.920;4.492;2023-02-08T04:37:12;19.47;;;8.53;;
44143;SDS011;43510;51.920;4.492;2023-02-08T04:39:37;22.40;;;9.57;;
44143;SDS011;43510;51.920;4.492;2023-02-08T04:42:03;16.77;;;8.10;;
44143;SDS011;43510;51.920;4.492;2023-02-08T04:44:29;16.23;;;8.57;;
44143;SDS011;43510;51.920;4.492;2023-02-08T04:46:56;13.40;;;7.70;;
44143;SDS011;43510;51.920;4.492;2023-02-08T04:49:22;16.30;;;8.17;;
44143;SDS011;43510;51.920;4.492;2023-02-08T04:51:47;15.67;;;8.13;;
44143;SDS011;43510;51.920;4.492;2023-02-08T04:54:13;18.70;;;9.27;;
44143;SDS011;43510;51.920;4.492;2023-02-08T04:56:39;17.20;;;9.00;;
44143;SDS011;43510;51.920;4.492;2023-02-08T04:59:06;20.70;;;8.47;;
44143;SDS011;43510;51.920;4.492;2023-02-08T05:01:32;17.50;;;8.57;;
44143;SDS011;43510;51.920;4.492;2023-02-08T05:03:57;20.00;;;9.10;;
44143;SDS011;43510;51.920;4.492;2023-02-08T05:06:22;16.13;;;8.00;;
44143;SDS011;43510;51.920;4.492;2023-02-08T05:08:48;18.63;;;8.67;;
44143;SDS011;43510;51.920;4.492;2023-02-08T05:11:18;15.23;;;8.00;;
44143;SDS011;43510;51.920;4.492;2023-02-08T05:13:45;20.37;;;8.17;;
44143;SDS011;43510;51.920;4.492;2023-02-08T05:16:10;20.70;;;9.97;;
44143;SDS011;43510;51.920;4.492;2023-02-08T05:18:35;15.53;;;7.77;;
44143;SDS011;43510;51.920;4.492;2023-02-08T05:21:03;18.03;;;8.30;;
44143;SDS011;43510;51.920;4.492;2023-02-08T05:23:28;19.73;;;8.53;;
44143;SDS011;43510;51.920;4.492;2023-02-08T05:26:05;15.43;;;7.93;;
44143;SDS011;43510;51.920;4.492;2023-02-08T05:28:31;15.17;;;7.63;;
44143;SDS011;43510;51.920;4.492;2023-02-08T05:30:57;16.87;;;7.83;;
44143;SDS011;43510;51.920;4.492;2023-02-08T05:33:22;14.80;;;7.30;;
44143;SDS011;43510;51.920;4.492;2023-02-08T05:35:47;16.17;;;8.03;;
44143;SDS011;43510;51.920;4.492;2023-02-08T05:38:13;17.00;;;8.07;;
44143;SDS011;43510;51.920;4.492;2023-02-08T05:40:38;17.00;;;7.90;;
44143;SDS011;43510;51.920;4.492;2023-02-08T05:43:04;17.10;;;8.40;;
44143;SDS011;43510;51.920;4.492;2023-02-08T05:45:29;16.17;;;7.10;;
44143;SDS011;43510;51.920;4.492;2023-02-08T05:47:54;15.17;;;7.47;;
44143;SDS011;43510;51.920;4.492;2023-02-08T05:50:20;14.90;;;6.97;;
44143;SDS011;43510;51.920;4.492;2023-02-08T05:52:46;13.50;;;6.90;;
44143;SDS011;43510;51.920;4.492;2023-02-08T05:55:11;15.77;;;7.50;;
44143;SDS011;43510;51.920;4.492;2023-02-08T05:57:36;20.87;;;8.23;;
44143;SDS011;43510;51.920;4.492;2023-02-08T06:00:03;15.27;;;7.07;;
44143;SDS011;43510;51.920;4.492;2023-02-08T06:02:30;15.70;;;8.03;;
44143;SDS011;43510;51.920;4.492;2023-02-08T06:04:56;19.67;;;7.70;;
44143;SDS011;43510;51.920;4.492;2023-02-08T06:07:22;16.07;;;8.00;;
44143;SDS011;43510;51.920;4.492;2023-02-08T06:09:48;18.63;;;9.53;;
44143;SDS011;43510;51.920;4.492;2023-02-08T06:12:14;17.93;;;8.57;;
44143;SDS011;43510;51.920;4.492;2023-02-08T06:14:43;21.70;;;9.13;;
44143;SDS011;43510;51.920;4.492;2023-02-08T06:17:09;15.50;;;8.07;;
44143;SDS011;43510;51.920;4.492;2023-02-08T06:19:34;15.20;;;8.10;;
44143;SDS011;43510;51.920;4.492;2023-02-08T06:21:59;18.30;;;8.37;;
44143;SDS011;43510;51.920;4.492;2023-02-08T06:24:25;16.53;;;8.13;;
44143;SDS011;43510;51.920;4.492;2023-02-08T06:26:51;15.53;;;7.17;;
44143;SDS011;43510;51.920;4.492;2023-02-08T06:29:16;17.30;;;8.70;;
44143;SDS011;43510;51.920;4.492;2023-02-08T06:31:41;24.30;;;8.83;;
44143;SDS011;43510;51.920;4.492;2023-02-08T06:34:07;16.73;;;8.23;;
44143;SDS011;43510;51.920;4.492;2023-02-08T06:36:32;17.23;;;7.90;;
44143;SDS011;43510;51.920;4.492;2023-02-08T06:39:05;18.87;;;8.83;;
44143;SDS011;43510;51.920;4.492;2023-02-08T06:41:30;18.73;;;7.32;;
44143;SDS011;43510;51.920;4.492;2023-02-08T06:43:56;16.90;;;8.93;;
44143;SDS011;43510;51.920;4.492;2023-02-08T06:46:23;21.50;;;8.87;;
44143;SDS011;43510;51.920;4.492;2023-02-08T06:48:49;20.97;;;8.93;;
44143;SDS011;43510;51.920;4.492;2023-02-08T06:51:14;15.30;;;7.53;;
44143;SDS011;43510;51.920;4.492;2023-02-08T06:53:39;19.80;;;9.07;;
44143;SDS011;43510;51.920;4.492;2023-02-08T06:56:06;14.00;;;7.63;;
44143;SDS011;43510;51.920;4.492;2023-02-08T06:58:31;16.83;;;7.87;;
44143;SDS011;43510;51.920;4.492;2023-02-08T07:00:59;18.03;;;8.57;;
44143;SDS011;43510;51.920;4.492;2023-02-08T07:03:24;18.20;;;8.10;;
44143;SDS011;43510;51.920;4.492;2023-02-08T07:08:26;18.33;;;8.37;;
44143;SDS011;43510;51.920;4.492;2023-02-08T07:10:51;19.30;;;8.57;;
44143;SDS011;43510;51.920;4.492;2023-02-08T07:13:17;17.00;;;8.43;;
44143;SDS011;43510;51.920;4.492;2023-02-08T07:15:42;17.57;;;9.53;;
44143;SDS011;43510;51.920;4.492;2023-02-08T07:18:07;19.77;;;8.77;;
44143;SDS011;43510;51.920;4.492;2023-02-08T07:20:33;15.77;;;7.97;;
44143;SDS011;43510;51.920;4.492;2023-02-08T07:22:59;17.07;;;8.27;;
44143;SDS011;43510;51.920;4.492;2023-02-08T07:35:45;18.50;;;8.20;;
44143;SDS011;43510;51.920;4.492;2023-02-08T07:38:16;16.23;;;8.63;;
44143;SDS011;43510;51.920;4.492;2023-02-08T07:48:28;20.03;;;8.97;;
44143;SDS011;43510;51.920;4.492;2023-02-08T07:50:54;15.27;;;8.80;;
44143;SDS011;43510;51.920;4.492;2023-02-08T07:53:19;17.60;;;8.73;;
44143;SDS011;43510;51.920;4.492;2023-02-08T08:04:05;15.27;;;8.17;;
44143;SDS011;43510;51.920;4.492;2023-02-08T08:06:35;24.93;;;9.37;;
44143;SDS011;43510;51.920;4.492;2023-02-08T08:09:01;18.43;;;8.70;;
44143;SDS011;43510;51.920;4.492;2023-02-08T08:11:27;14.87;;;7.60;;
44143;SDS011;43510;51.920;4.492;2023-02-08T08:13:52;23.33;;;8.87;;
44143;SDS011;43510;51.920;4.492;2023-02-08T08:16:19;23.43;;;8.80;;
44143;SDS011;43510;51.920;4.492;2023-02-08T08:18:46;14.83;;;7.43;;
44143;SDS011;43510;51.920;4.492;2023-02-08T08:21:12;17.98;;;8.93;;
44143;SDS011;43510;51.920;4.492;2023-02-08T08:23:39;15.25;;;7.65;;
44143;SDS011;43510;51.920;4.492;2023-02-08T08:26:08;14.40;;;7.53;;
44143;SDS011;43510;51.920;4.492;2023-02-08T08:28:38;18.13;;;8.70;;
44143;SDS011;43510;51.920;4.492;2023-02-08T08:31:08;16.77;;;7.95;;
44143;SDS011;43510;51.920;4.492;2023-02-08T08:33:35;20.40;;;8.18;;
44143;SDS011;43510;51.920;4.492;2023-02-08T08:36:00;18.55;;;8.10;;
44143;SDS011;43510;51.920;4.492;2023-02-08T08:38:26;22.00;;;8.00;;
44143;SDS011;43510;51.920;4.492;2023-02-08T08:40:51;16.73;;;7.32;;
44143;SDS011;43510;51.920;4.492;2023-02-08T08:43:17;14.45;;;7.68;;
44143;SDS011;43510;51.920;4.492;2023-02-08T09:34:49;20.67;;;8.75;;
44143;SDS011;43510;51.920;4.492;2023-02-08T09:37:16;22.27;;;9.90;;
44143;SDS011;43510;51.920;4.492;2023-02-08T09:39:42;16.55;;;8.68;;
44143;SDS011;43510;51.920;4.492;2023-02-08T09:42:20;17.13;;;8.52;;
44143;SDS011;43510;51.920;4.492;2023-02-08T09:50:36;15.63;;;8.18;;
44143;SDS011;43510;51.920;4.492;2023-02-08T09:53:08;16.80;;;8.93;;
44143;SDS011;43510;51.920;4.492;2023-02-08T09:58:39;16.83;;;8.73;;
44143;SDS011;43510;51.920;4.492;2023-02-08T10:03:52;15.52;;;8.63;;
44143;SDS011;43510;51.920;4.492;2023-02-08T10:06:23;17.75;;;8.18;;
44143;SDS011;43510;51.920;4.492;2023-02-08T10:08:49;17.23;;;8.23;;
44143;SDS011;43510;51.920;4.492;2023-02-08T10:19:58;18.13;;;8.15;;
44143;SDS011;43510;51.920;4.492;2023-02-08T10:22:50;16.42;;;7.85;;
44143;SDS011;43510;51.920;4.492;2023-02-08T10:25:33;14.07;;;6.82;;
44143;SDS011;43510;51.920;4.492;2023-02-08T10:28:29;16.50;;;7.80;;
44143;SDS011;43510;51.920;4.492;2023-02-08T10:34:00;12.73;;;6.35;;
44143;SDS011;43510;51.920;4.492;2023-02-08T10:36:29;14.05;;;6.30;;
44143;SDS011;43510;51.920;4.492;2023-02-08T10:41:35;12.00;;;5.38;;
44143;SDS011;43510;51.920;4.492;2023-02-08T10:44:07;17.50;;;7.28;;
44143;SDS011;43510;51.920;4.492;2023-02-08T10:46:49;18.02;;;7.95;;
44143;SDS011;43510;51.920;4.492;2023-02-08T10:49:34;12.25;;;5.88;;
44143;SDS011;43510;51.920;4.492;2023-02-08T10:52:06;13.35;;;6.20;;
44143;SDS011;43510;51.920;4.492;2023-02-08T10:54:35;16.92;;;8.05;;
44143;SDS011;43510;51.920;4.492;2023-02-08T10:57:01;16.45;;;7.20;;
44143;SDS011;43510;51.920;4.492;2023-02-08T10:59:32;12.30;;;6.55;;
44143;SDS011;43510;51.920;4.492;2023-02-08T11:02:07;18.85;;;7.85;;
44143;SDS011;43510;51.920;4.492;2023-02-08T11:07:31;17.63;;;7.03;;
44143;SDS011;43510;51.920;4.492;2023-02-08T11:10:32;18.27;;;7.35;;
44143;SDS011;43510;51.920;4.492;2023-02-08T11:21:02;15.27;;;6.13;;
44143;SDS011;43510;51.920;4.492;2023-02-08T11:23:36;21.15;;;6.82;;
44143;SDS011;43510;51.920;4.492;2023-02-08T11:26:23;12.52;;;6.70;;
44143;SDS011;43510;51.920;4.492;2023-02-08T11:31:31;16.83;;;7.40;;
44143;SDS011;43510;51.920;4.492;2023-02-08T11:34:01;12.88;;;6.70;;
44143;SDS011;43510;51.920;4.492;2023-02-08T11:39:16;14.25;;;6.72;;
44143;SDS011;43510;51.920;4.492;2023-02-08T12:15:32;16.42;;;5.72;;
44143;SDS011;43510;51.920;4.492;2023-02-08T12:54:03;8.98;;;4.25;;
44143;SDS011;43510;51.920;4.492;2023-02-08T13:19:51;11.25;;;4.93;;
44143;SDS011;43510;51.920;4.492;2023-02-08T13:22:33;9.87;;;4.50;;
44143;SDS011;43510;51.920;4.492;2023-02-08T13:25:01;11.18;;;4.32;;
44143;SDS011;43510;51.920;4.492;2023-02-08T13:30:06;10.95;;;4.85;;
44143;SDS011;43510;51.920;4.492;2023-02-08T13:32:41;8.90;;;4.25;;
44143;SDS011;43510;51.920;4.492;2023-02-08T13:35:20;9.00;;;4.13;;
44143;SDS011;43510;51.920;4.492;2023-02-08T13:37:52;23.33;;;8.35;;
44143;SDS011;43510;51.920;4.492;2023-02-08T13:40:25;12.68;;;6.20;;
44143;SDS011;43510;51.920;4.492;2023-02-08T13:45:35;10.43;;;5.20;;
44143;SDS011;43510;51.920;4.492;2023-02-08T13:48:09;9.70;;;4.75;;
44143;SDS011;43510;51.920;4.492;2023-02-08T15:52:12;9.07;;;4.00;;
44143;SDS011;43510;51.920;4.492;2023-02-08T15:54:42;9.43;;;3.78;;
44143;SDS011;43510;51.920;4.492;2023-02-08T15:57:16;7.82;;;3.33;;
44143;SDS011;43510;51.920;4.492;2023-02-08T15:59:46;11.13;;;4.18;;
44143;SDS011;43510;51.920;4.492;2023-02-08T16:02:19;14.45;;;4.60;;
44143;SDS011;43510;51.920;4.492;2023-02-08T16:04:58;7.60;;;3.80;;
44143;SDS011;43510;51.920;4.492;2023-02-08T16:07:30;10.02;;;4.40;;
44143;SDS011;43510;51.920;4.492;2023-02-08T16:09:59;12.82;;;4.07;;
44143;SDS011;43510;51.920;4.492;2023-02-08T16:12:25;8.50;;;3.55;;
44143;SDS011;43510;51.920;4.492;2023-02-08T16:14:52;7.43;;;4.10;;
44143;SDS011;43510;51.920;4.492;2023-02-08T16:17:41;16.55;;;4.18;;
44143;SDS011;43510;51.920;4.492;2023-02-08T16:20:22;11.65;;;4.80;;
44143;SDS011;43510;51.920;4.492;2023-02-08T16:22:56;9.20;;;4.72;;
44143;SDS011;43510;51.920;4.492;2023-02-08T16:25:32;12.20;;;5.13;;
44143;SDS011;43510;51.920;4.492;2023-02-08T16:59:01;13.25;;;5.40;;
44143;SDS011;43510;51.920;4.492;2023-02-08T17:01:27;10.63;;;4.97;;
44143;SDS011;43510;51.920;4.492;2023-02-08T17:03:59;11.80;;;5.90;;
44143;SDS011;43510;51.920;4.492;2023-02-08T17:08:59;17.05;;;5.32;;
44143;SDS011;43510;51.920;4.492;2023-02-08T17:11:26;11.70;;;5.65;;
44143;SDS011;43510;51.920;4.492;2023-02-08T17:14:03;12.57;;;5.45;;
44143;SDS011;43510;51.920;4.492;2023-02-08T17:16:30;15.40;;;6.20;;
44143;SDS011;43510;51.920;4.492;2023-02-08T17:18:57;16.02;;;6.30;;
44143;SDS011;43510;51.920;4.492;2023-02-08T17:23:53;13.48;;;5.60;;
44143;SDS011;43510;51.920;4.492;2023-02-08T17:26:20;16.63;;;6.88;;
44143;SDS011;43510;51.920;4.492;2023-02-08T17:28:51;24.38;;;10.43;;
44143;SDS011;43510;51.920;4.492;2023-02-08T17:31:18;24.17;;;9.43;;
44143;SDS011;43510;51.920;4.492;2023-02-08T17:33:44;27.50;;;9.90;;
44143;SDS011;43510;51.920;4.492;2023-02-08T17:36:10;25.58;;;11.30;;
44143;SDS011;43510;51.920;4.492;2023-02-08T17:38:37;14.43;;;7.18;;
44143;SDS011;43510;51.920;4.492;2023-02-08T17:41:04;16.42;;;7.22;;
44143;SDS011;43510;51.920;4.492;2023-02-08T17:43:37;14.38;;;6.32;;
44143;SDS011;43510;51.920;4.492;2023-02-08T17:46:14;16.58;;;6.70;;
44143;SDS011;43510;51.920;4.492;2023-02-08T17:48:42;15.05;;;6.78;;
44143;SDS011;43510;51.920;4.492;2023-02-08T17:51:12;13.98;;;7.05;;
44143;SDS011;43510;51.920;4.492;2023-02-08T17:53:39;15.27;;;6.90;;
44143;SDS011;43510;51.920;4.492;2023-02-08T17:56:11;16.65;;;7.05;;
44143;SDS011;43510;51.920;4.492;2023-02-08T17:58:48;16.23;;;6.75;;
44143;SDS011;43510;51.920;4.492;2023-02-08T18:01:15;16.40;;;7.15;;
44143;SDS011;43510;51.920;4.492;2023-02-08T18:03:46;13.48;;;6.50;;
44143;SDS011;43510;51.920;4.492;2023-02-08T18:06:19;17.52;;;6.57;;
44143;SDS011;43510;51.920;4.492;2023-02-08T18:08:49;16.52;;;6.65;;
44143;SDS011;43510;51.920;4.492;2023-02-08T18:11:27;18.27;;;6.88;;
44143;SDS011;43510;51.920;4.492;2023-02-08T18:13:55;13.02;;;6.03;;
44143;SDS011;43510;51.920;4.492;2023-02-08T18:16:24;22.95;;;7.78;;
44143;SDS011;43510;51.920;4.492;2023-02-08T18:18:53;18.83;;;6.95;;
44143;SDS011;43510;51.920;4.492;2023-02-08T18:21:21;11.63;;;6.00;;
44143;SDS011;43510;51.920;4.492;2023-02-08T18:23:49;17.05;;;6.40;;
44143;SDS011;43510;51.920;4.492;2023-02-08T18:26:17;15.07;;;6.13;;
44143;SDS011;43510;51.920;4.492;2023-02-08T18:28:43;12.73;;;6.43;;
44143;SDS011;43510;51.920;4.492;2023-02-08T18:31:12;18.10;;;6.75;;
44143;SDS011;43510;51.920;4.492;2023-02-08T18:33:39;15.65;;;7.32;;
44143;SDS011;43510;51.920;4.492;2023-02-08T18:36:06;13.02;;;6.72;;
44143;SDS011;43510;51.920;4.492;2023-02-08T18:38:35;14.80;;;6.32;;
44143;SDS011;43510;51.920;4.492;2023-02-08T18:41:07;11.13;;;5.78;;
44143;SDS011;43510;51.920;4.492;2023-02-08T18:45:59;9.85;;;5.20;;
44143;SDS011;43510;51.920;4.492;2023-02-08T18:48:26;11.23;;;5.45;;
44143;SDS011;43510;51.920;4.492;2023-02-08T18:50:56;11.25;;;5.60;;
44143;SDS011;43510;51.920;4.492;2023-02-08T18:53:24;13.82;;;5.70;;
44143;SDS011;43510;51.920;4.492;2023-02-08T18:56:00;10.90;;;4.65;;
44143;SDS011;43510;51.920;4.492;2023-02-08T18:58:27;10.02;;;4.88;;
44143;SDS011;43510;51.920;4.492;2023-02-08T19:00:54;9.98;;;4.78;;
44143;SDS011;43510;51.920;4.492;2023-02-08T19:03:23;11.07;;;5.40;;
44143;SDS011;43510;51.920;4.492;2023-02-08T19:05:48;11.63;;;5.22;;
44143;SDS011;43510;51.920;4.492;2023-02-08T19:10:52;8.38;;;4.78;;
44143;SDS011;43510;51.920;4.492;2023-02-08T19:13:18;11.35;;;5.00;;
44143;SDS011;43510;51.920;4.492;2023-02-08T19:15:45;10.60;;;4.85;;
44143;SDS011;43510;51.920;4.492;2023-02-08T19:18:10;12.23;;;5.15;;
44143;SDS011;43510;51.920;4.492;2023-02-08T19:20:36;8.63;;;4.15;;
44143;SDS011;43510;51.920;4.492;2023-02-08T19:23:03;10.85;;;4.63;;
44143;SDS011;43510;51.920;4.492;2023-02-08T19:25:29;9.27;;;4.00;;
44143;SDS011;43510;51.920;4.492;2023-02-08T19:27:55;13.73;;;4.95;;
44143;SDS011;43510;51.920;4.492;2023-02-08T19:30:21;11.25;;;4.80;;
44143;SDS011;43510;51.920;4.492;2023-02-08T19:32:46;13.67;;;4.90;;
44143;SDS011;43510;51.920;4.492;2023-02-08T19:35:18;13.65;;;6.00;;
44143;SDS011;43510;51.920;4.492;2023-02-08T19:37:45;8.45;;;4.25;;
44143;SDS011;43510;51.920;4.492;2023-02-08T19:40:16;9.10;;;4.82;;
44143;SDS011;43510;51.920;4.492;2023-02-08T19:42:43;9.07;;;4.65;;
44143;SDS011;43510;51.920;4.492;2023-02-08T19:45:12;9.87;;;4.60;;
44143;SDS011;43510;51.920;4.492;2023-02-08T19:47:40;10.00;;;4.80;;
44143;SDS011;43510;51.920;4.492;2023-02-08T19:50:06;13.85;;;5.00;;
44143;SDS011;43510;51.920;4.492;2023-02-08T19:52:32;9.68;;;4.70;;
44143;SDS011;43510;51.920;4.492;2023-02-08T19:54:57;11.00;;;5.25;;
44143;SDS011;43510;51.920;4.492;2023-02-08T19:57:22;11.75;;;5.57;;
44143;SDS011;43510;51.920;4.492;2023-02-08T19:59:49;12.02;;;5.55;;
44143;SDS011;43510;51.920;4.492;2023-02-08T20:02:15;11.25;;;4.97;;
44143;SDS011;43510;51.920;4.492;2023-02-08T20:04:43;10.40;;;4.38;;
44143;SDS011;43510;51.920;4.492;2023-02-08T20:07:09;9.57;;;4.53;;
44143;SDS011;43510;51.920;4.492;2023-02-08T20:09:34;8.30;;;4.50;;
44143;SDS011;43510;51.920;4.492;2023-02-08T20:12:00;10.40;;;4.70;;
44143;SDS011;43510;51.920;4.492;2023-02-08T20:14:26;9.07;;;4.53;;
44143;SDS011;43510;51.920;4.492;2023-02-08T20:17:00;10.45;;;4.80;;
44143;SDS011;43510;51.920;4.492;2023-02-08T20:19:27;10.88;;;4.43;;
44143;SDS011;43510;51.920;4.492;2023-02-08T20:21:53;8.90;;;4.50;;
44143;SDS011;43510;51.920;4.492;2023-02-08T20:24:18;10.65;;;4.40;;
44143;SDS011;43510;51.920;4.492;2023-02-08T20:26:45;12.38;;;5.68;;
44143;SDS011;43510;51.920;4.492;2023-02-08T20:29:11;10.40;;;4.65;;
44143;SDS011;43510;51.920;4.492;2023-02-08T20:31:40;10.27;;;5.03;;
44143;SDS011;43510;51.920;4.492;2023-02-08T20:34:10;10.05;;;4.53;;
44143;SDS011;43510;51.920;4.492;2023-02-08T20:36:38;9.23;;;4.67;;
44143;SDS011;43510;51.920;4.492;2023-02-08T20:39:09;10.15;;;4.55;;
44143;SDS011;43510;51.920;4.492;2023-02-08T20:41:38;10.63;;;4.65;;
44143;SDS011;43510;51.920;4.492;2023-02-08T20:44:13;11.35;;;4.80;;
44143;SDS011;43510;51.920;4.492;2023-02-08T20:46:41;11.07;;;4.82;;
44143;SDS011;43510;51.920;4.492;2023-02-08T20:49:08;11.38;;;4.63;;
44143;SDS011;43510;51.920;4.492;2023-02-08T20:51:35;10.68;;;4.75;;
44143;SDS011;43510;51.920;4.492;2023-02-08T20:54:02;11.03;;;4.60;;
44143;SDS011;43510;51.920;4.492;2023-02-08T20:59:02;9.57;;;4.53;;
44143;SDS011;43510;51.920;4.492;2023-02-08T21:01:30;8.95;;;4.22;;
44143;SDS011;43510;51.920;4.492;2023-02-08T21:04:01;10.30;;;4.60;;
44143;SDS011;43510;51.920;4.492;2023-02-08T21:06:29;12.07;;;5.53;;
44143;SDS011;43510;51.920;4.492;2023-02-08T21:08:58;13.20;;;5.30;;
44143;SDS011;43510;51.920;4.492;2023-02-08T21:11:28;13.90;;;5.22;;
44143;SDS011;43510;51.920;4.492;2023-02-08T21:13:55;13.70;;;4.87;;
44143;SDS011;43510;51.920;4.492;2023-02-08T21:16:26;11.88;;;5.78;;
44143;SDS011;43510;51.920;4.492;2023-02-08T21:18:52;12.00;;;5.87;;
44143;SDS011;43510;51.920;4.492;2023-02-08T21:21:19;12.63;;;6.13;;
44143;SDS011;43510;51.920;4.492;2023-02-08T21:26:18;11.98;;;5.40;;
44143;SDS011;43510;51.920;4.492;2023-02-08T21:28:44;10.75;;;5.20;;
44143;SDS011;43510;51.920;4.492;2023-02-08T21:31:17;10.87;;;5.13;;
44143;SDS011;43510;51.920;4.492;2023-02-08T21:33:46;12.82;;;5.50;;
44143;SDS011;43510;51.920;4.492;2023-02-08T21:36:13;10.97;;;5.27;;
44143;SDS011;43510;51.920;4.492;2023-02-08T21:38:39;10.02;;;4.93;;
44143;SDS011;43510;51.920;4.492;2023-02-08T21:41:07;11.30;;;5.37;;
44143;SDS011;43510;51.920;4.492;2023-02-08T21:43:47;10.20;;;5.13;;
44143;SDS011;43510;51.920;4.492;2023-02-08T21:46:13;12.55;;;5.47;;
44143;SDS011;43510;51.920;4.492;2023-02-08T21:48:40;12.15;;;5.13;;
44143;SDS011;43510;51.920;4.492;2023-02-08T21:51:24;10.13;;;4.60;;
44143;SDS011;43510;51.920;4.492;2023-02-08T21:54:13;11.15;;;4.90;;